createdAt,value
2018-03-28T00:01:17.203Z,96948.02
2018-03-28T00:03:45.464Z,96937.91
2018-03-28T00:06:13.745Z,96936.55
2018-03-28T00:08:42.001Z,96935.30
2018-03-28T00:11:11.058Z,96938.69
2018-03-28T00:13:39.322Z,96941.68
2018-03-28T00:16:08.341Z,96940.34
2018-03-28T00:18:36.617Z,96940.88
2018-03-28T00:21:04.905Z,96937.97
2018-03-28T00:23:33.174Z,96933.21
2018-03-28T00:26:01.453Z,96934.94
2018-03-28T00:28:29.717Z,96934.12
2018-03-28T00:30:57.977Z,96930.66
2018-03-28T00:33:26.252Z,96925.98
2018-03-28T00:35:54.512Z,96919.16
2018-03-28T00:38:22.779Z,96915.81
2018-03-28T00:40:51.049Z,96922.05
2018-03-28T00:43:19.329Z,96915.22
2018-03-28T00:45:47.588Z,96917.02
2018-03-28T00:48:15.856Z,96918.32
2018-03-28T00:50:44.904Z,96917.69
2018-03-28T00:53:13.239Z,96916.95
2018-03-28T00:55:41.596Z,96919.39
2018-03-28T00:58:09.936Z,96911.70
2018-03-28T01:00:38.289Z,96907.03
2018-03-28T01:03:06.584Z,96907.42
2018-03-28T01:05:34.865Z,96907.37
2018-03-28T01:08:03.138Z,96901.39
2018-03-28T01:10:32.169Z,96900.13
2018-03-28T01:13:00.452Z,96898.02
2018-03-28T01:15:29.488Z,96894.22
2018-03-28T01:17:57.797Z,96894.58
2018-03-28T01:20:26.040Z,96896.63
2018-03-28T01:22:54.353Z,96894.48
2018-03-28T01:25:22.608Z,96893.67
2018-03-28T01:27:50.887Z,96892.01
2018-03-28T01:30:19.163Z,96888.93
2018-03-28T01:32:47.432Z,96890.23
2018-03-28T01:35:15.744Z,96880.05
2018-03-28T01:37:44.015Z,96876.22
2018-03-28T01:40:12.280Z,96876.53
2018-03-28T01:42:40.556Z,96878.77
2018-03-28T01:45:08.824Z,96873.22
2018-03-28T01:47:37.085Z,96877.06
2018-03-28T01:50:05.380Z,96871.03
2018-03-28T01:52:33.644Z,96868.98
2018-03-28T01:55:01.914Z,96874.56
2018-03-28T01:57:30.196Z,96867.82
2018-03-28T01:59:58.457Z,96867.86
2018-03-28T02:02:26.738Z,96862.33
2018-03-28T02:04:55.006Z,96868.16
2018-03-28T02:07:23.269Z,96865.61
2018-03-28T02:09:51.557Z,96861.83
2018-03-28T02:12:19.816Z,96862.44
2018-03-28T02:14:48.084Z,96860.14
2018-03-28T02:17:17.133Z,96862.57
2018-03-28T02:19:45.397Z,96865.98
2018-03-28T02:22:13.666Z,96872.41
2018-03-28T02:24:41.952Z,96869.05
2018-03-28T02:27:10.214Z,96867.84
2018-03-28T02:29:38.478Z,96868.66
2018-03-28T02:32:06.760Z,96864.83
2018-03-28T02:34:35.029Z,96860.92
2018-03-28T02:37:03.289Z,96860.31
2018-03-28T02:39:32.349Z,96858.61
2018-03-28T02:42:00.609Z,96858.20
2018-03-28T02:44:28.883Z,96853.93
2018-03-28T02:46:57.168Z,96855.28
2018-03-28T02:49:25.428Z,96856.06
2018-03-28T02:51:53.710Z,96858.19
2018-03-28T02:54:21.989Z,96850.59
2018-03-28T02:56:50.253Z,96856.74
2018-03-28T02:59:18.518Z,96858.86
2018-03-28T03:01:46.797Z,96860.41
2018-03-28T03:04:15.899Z,96857.85
2018-03-28T03:06:44.150Z,96858.61
2018-03-28T03:09:12.431Z,96864.11
2018-03-28T03:11:40.692Z,96860.34
2018-03-28T03:14:09.733Z,96867.10
2018-03-28T03:16:38.015Z,96869.78
2018-03-28T03:19:06.281Z,96856.17
2018-03-28T03:21:34.549Z,96862.06
2018-03-28T03:24:02.866Z,96854.05
2018-03-28T03:26:31.135Z,96851.28
2018-03-28T03:28:59.401Z,96849.17
2018-03-28T03:31:27.671Z,96855.05
2018-03-28T03:33:55.944Z,96859.78
2018-03-28T03:36:24.201Z,96853.95
2018-03-28T03:38:52.479Z,96854.67
2018-03-28T03:41:20.793Z,96849.18
2018-03-28T03:43:49.052Z,96845.81
2018-03-28T03:46:17.328Z,96847.29
2018-03-28T03:48:45.588Z,96848.36
2018-03-28T03:51:13.865Z,96846.13
2018-03-28T03:53:42.121Z,96842.72
2018-03-28T03:56:10.414Z,96841.48
2018-03-28T03:58:38.680Z,96838.99
2018-03-28T04:01:06.937Z,96838.36
2018-03-28T04:03:35.200Z,96840.40
2018-03-28T04:06:04.236Z,96836.97
2018-03-28T04:08:32.501Z,96839.66
2018-03-28T04:11:00.760Z,96840.83
2018-03-28T04:13:29.037Z,96838.52
2018-03-28T04:15:57.299Z,96841.44
2018-03-28T04:18:26.329Z,96834.75
2018-03-28T04:20:54.632Z,96836.73
2018-03-28T04:23:22.896Z,96836.71
2018-03-28T04:25:51.176Z,96829.41
2018-03-28T04:28:19.444Z,96836.50
2018-03-28T04:30:47.710Z,96841.84
2018-03-28T04:33:15.988Z,96839.69
2018-03-28T04:35:44.264Z,96845.80
2018-03-28T04:38:12.532Z,96847.02
2018-03-28T04:40:40.841Z,96850.78
2018-03-28T04:43:09.214Z,96841.99
2018-03-28T04:45:37.478Z,96842.54
2018-03-28T04:48:05.766Z,96839.88
2018-03-28T04:50:34.026Z,96841.09
2018-03-28T04:53:02.286Z,96844.81
2018-03-28T04:55:30.605Z,96836.83
2018-03-28T04:57:58.868Z,96838.08
2018-03-28T05:00:27.124Z,96840.95
2018-03-28T05:02:55.414Z,96840.98
2018-03-28T05:05:23.672Z,96842.92
2018-03-28T05:07:51.937Z,96836.93
2018-03-28T05:10:20.251Z,96838.05
2018-03-28T05:12:48.491Z,96842.22
2018-03-28T05:15:16.746Z,96842.14
2018-03-28T05:17:45.800Z,96840.55
2018-03-28T05:20:14.066Z,96836.47
2018-03-28T05:22:42.365Z,96837.98
2018-03-28T05:25:10.626Z,96847.72
2018-03-28T05:27:38.896Z,96837.90
2018-03-28T05:30:07.201Z,96832.67
2018-03-28T05:32:35.436Z,96827.27
2018-03-28T05:35:03.721Z,96834.05
2018-03-28T05:37:31.986Z,96831.17
2018-03-28T05:40:00.275Z,96831.70
2018-03-28T05:42:28.540Z,96828.56
2018-03-28T05:44:56.808Z,96826.00
2018-03-28T05:47:25.084Z,96818.97
2018-03-28T05:49:53.354Z,96814.55
2018-03-28T05:52:21.616Z,96815.06
2018-03-28T05:54:49.905Z,96820.01
2018-03-28T05:57:18.171Z,96817.55
2018-03-28T05:59:46.437Z,96820.65
2018-03-28T06:02:15.483Z,96825.71
2018-03-28T06:04:43.760Z,96829.03
2018-03-28T06:07:12.797Z,96826.05
2018-03-28T06:09:41.838Z,96824.16
2018-03-28T06:12:10.099Z,96828.45
2018-03-28T06:14:38.375Z,96825.66
2018-03-28T06:17:06.656Z,96830.67
2018-03-28T06:19:34.992Z,96824.52
2018-03-28T06:22:03.189Z,96821.92
2018-03-28T06:24:31.477Z,96823.24
2018-03-28T06:26:59.732Z,96824.32
2018-03-28T06:29:27.993Z,96826.44
2018-03-28T06:31:57.044Z,96818.40
2018-03-28T06:34:25.338Z,96821.20
2018-03-28T06:36:53.584Z,96819.38
2018-03-28T06:39:21.869Z,96820.87
2018-03-28T06:41:50.129Z,96823.39
2018-03-28T06:44:18.394Z,96826.56
2018-03-28T06:46:46.665Z,96826.61
2018-03-28T06:49:14.930Z,96821.70
2018-03-28T06:51:43.964Z,96819.34
2018-03-28T06:54:12.254Z,96821.80
2018-03-28T06:56:40.513Z,96818.34
2018-03-28T06:59:08.768Z,96819.88
2018-03-28T07:01:37.048Z,96819.36
2018-03-28T07:04:05.305Z,96815.55
2018-03-28T07:06:34.326Z,96820.52
2018-03-28T07:09:02.596Z,96819.56
2018-03-28T07:11:30.862Z,96815.77
2018-03-28T07:13:59.127Z,96807.83
2018-03-28T07:16:28.175Z,96803.76
2018-03-28T07:18:56.433Z,96801.79
2018-03-28T07:21:24.677Z,96801.62
2018-03-28T07:23:53.027Z,96806.75
2018-03-28T07:26:22.062Z,96810.08
2018-03-28T07:28:50.324Z,96816.15
2018-03-28T07:31:18.616Z,96816.52
2018-03-28T07:33:46.922Z,96811.66
2018-03-28T07:36:15.252Z,96816.24
2018-03-28T07:38:43.642Z,96808.88
2018-03-28T07:41:11.983Z,96814.34
2018-03-28T07:43:41.071Z,96814.70
2018-03-28T07:46:10.174Z,96811.38
2018-03-28T07:48:39.290Z,96811.96
2018-03-28T07:51:07.607Z,96813.72
2018-03-28T07:53:35.976Z,96814.27
2018-03-28T07:56:04.286Z,96811.16
2018-03-28T07:58:32.650Z,96809.28
2018-03-28T08:01:01.703Z,96816.50
2018-03-28T08:03:30.056Z,96813.73
2018-03-28T08:05:59.148Z,96812.92
2018-03-28T08:08:28.208Z,96801.75
2018-03-28T08:10:56.465Z,96801.50
2018-03-28T08:13:24.719Z,96807.87
2018-03-28T08:15:53.756Z,96805.92
2018-03-28T08:18:22.031Z,96805.66
2018-03-28T08:20:51.046Z,96800.20
2018-03-28T08:23:19.320Z,96806.87
2018-03-28T08:25:47.585Z,96816.50
2018-03-28T08:28:16.619Z,96821.33
2018-03-28T08:30:45.756Z,96810.15
2018-03-28T08:33:14.017Z,96816.31
2018-03-28T08:35:42.276Z,96813.64
2018-03-28T08:38:10.559Z,96814.92
2018-03-28T08:40:38.820Z,96806.83
2018-03-28T08:43:07.859Z,96808.16
2018-03-28T08:45:36.141Z,96796.09
2018-03-28T08:48:04.413Z,96801.45
2018-03-28T08:50:32.717Z,96790.34
2018-03-28T08:53:00.996Z,96790.25
2018-03-28T08:55:29.260Z,96786.23
2018-03-28T08:57:57.535Z,96787.28
2018-03-28T09:00:25.825Z,96796.30
2018-03-28T09:02:55.348Z,96786.30
2018-03-28T09:05:24.375Z,96781.72
2018-03-28T09:07:52.657Z,96783.13
2018-03-28T09:10:20.917Z,96776.83
2018-03-28T09:12:49.184Z,96779.80
2018-03-28T09:15:18.237Z,96781.42
2018-03-28T09:17:46.501Z,96786.08
2018-03-28T09:20:14.793Z,96783.87
2018-03-28T09:22:43.136Z,96784.50
2018-03-28T09:25:11.466Z,96781.45
2018-03-28T09:27:40.567Z,96780.59
2018-03-28T09:30:08.942Z,96782.60
2018-03-28T09:32:37.986Z,96779.58
2018-03-28T09:35:06.241Z,96774.30
2018-03-28T09:37:34.528Z,96768.80
2018-03-28T09:40:02.792Z,96768.64
2018-03-28T09:42:31.052Z,96757.27
2018-03-28T09:45:00.186Z,96755.73
2018-03-28T09:47:28.440Z,96752.44
2018-03-28T09:49:56.708Z,96756.14
2018-03-28T09:52:24.989Z,96755.91
2018-03-28T09:54:53.266Z,96764.86
2018-03-28T09:57:21.528Z,96762.20
2018-03-28T09:59:50.580Z,96767.66
2018-03-28T10:02:18.851Z,96765.17
2018-03-28T10:04:49.930Z,96765.86
2018-03-28T10:07:19.001Z,96766.97
2018-03-28T10:09:47.317Z,96766.88
2018-03-28T10:12:15.546Z,96769.67
2018-03-28T10:14:43.805Z,96763.81
2018-03-28T10:17:12.072Z,96760.23
2018-03-28T10:19:40.373Z,96756.21
2018-03-28T10:22:08.636Z,96756.23
2018-03-28T10:24:36.902Z,96751.84
2018-03-28T10:27:05.180Z,96751.94
2018-03-28T10:29:33.457Z,96750.22
2018-03-28T10:32:01.728Z,96746.87
2018-03-28T10:34:30.012Z,96747.04
2018-03-28T10:36:58.284Z,96751.94
2018-03-28T10:39:26.545Z,96750.76
2018-03-28T10:41:54.845Z,96750.45
2018-03-28T10:44:23.100Z,96747.00
2018-03-28T10:46:51.380Z,96739.33
2018-03-28T10:49:19.660Z,96743.83
2018-03-28T10:51:47.925Z,96746.26
2018-03-28T10:54:16.188Z,96749.25
2018-03-28T10:56:44.482Z,96754.87
2018-03-28T10:59:12.745Z,96758.95
2018-03-28T11:01:41.005Z,96752.23
2018-03-28T11:04:10.052Z,96752.85
2018-03-28T11:06:38.316Z,96746.95
2018-03-28T11:09:06.576Z,96749.17
2018-03-28T11:11:35.598Z,96740.30
2018-03-28T11:14:03.874Z,96740.44
2018-03-28T11:16:32.134Z,96739.41
2018-03-28T11:19:00.417Z,96731.81
2018-03-28T11:21:28.689Z,96746.64
2018-03-28T11:23:56.971Z,96737.15
2018-03-28T11:26:25.260Z,96736.00
2018-03-28T11:28:53.525Z,96734.02
2018-03-28T11:31:21.788Z,96735.53
2018-03-28T11:33:50.072Z,96729.77
2018-03-28T11:36:18.342Z,96726.73
2018-03-28T11:38:46.607Z,96723.73
2018-03-28T11:41:14.893Z,96710.78
2018-03-28T11:43:43.153Z,96709.69
2018-03-28T11:46:11.425Z,96707.19
2018-03-28T11:48:39.712Z,96712.31
2018-03-28T11:51:07.986Z,96704.79
2018-03-28T11:53:36.266Z,96706.41
2018-03-28T11:56:04.545Z,96701.13
2018-03-28T11:58:32.819Z,96700.66
2018-03-28T12:01:01.096Z,96688.71
2018-03-28T12:03:29.390Z,96681.77
2018-03-28T12:05:57.645Z,96676.95
2018-03-28T12:08:25.911Z,96674.79
2018-03-28T12:10:54.188Z,96667.48
2018-03-28T12:13:22.476Z,96664.77
2018-03-28T12:15:50.741Z,96666.66
2018-03-28T12:18:19.026Z,96650.80
2018-03-28T12:20:47.284Z,96651.62
2018-03-28T12:23:15.553Z,96641.95
2018-03-28T12:25:44.597Z,96640.09
2018-03-28T12:28:12.869Z,96630.23
2018-03-28T12:30:41.126Z,96628.46
2018-03-28T12:33:09.417Z,96622.69
2018-03-28T12:35:37.689Z,96619.24
2018-03-28T12:38:05.957Z,96620.49
2018-03-28T12:40:34.236Z,96616.34
2018-03-28T12:43:02.497Z,96610.14
2018-03-28T12:45:30.802Z,96605.94
2018-03-28T12:47:59.049Z,96605.31
2018-03-28T12:50:27.307Z,96594.70
2018-03-28T12:52:56.369Z,96590.46
2018-03-28T12:55:24.720Z,96593.52
2018-03-28T12:57:52.884Z,96577.83
2018-03-28T13:00:21.161Z,96578.07
2018-03-28T13:02:49.441Z,96569.98
2018-03-28T13:05:17.754Z,96567.23
2018-03-28T13:07:45.978Z,96568.63
2018-03-28T13:10:14.265Z,96570.68
2018-03-28T13:12:42.531Z,96555.56
2018-03-28T13:15:10.810Z,96559.59
2018-03-28T13:17:39.084Z,96547.66
2018-03-28T13:20:07.348Z,96545.68
2018-03-28T13:22:35.620Z,96538.09
2018-03-28T13:25:03.917Z,96532.54
2018-03-28T13:27:32.176Z,96529.77
2018-03-28T13:30:00.440Z,96533.77
2018-03-28T13:32:29.517Z,96525.28
2018-03-28T13:34:57.784Z,96520.34
2018-03-28T13:37:26.051Z,96518.00
2018-03-28T13:39:54.336Z,96516.28
2018-03-28T13:42:22.600Z,96505.38
2018-03-28T13:44:50.871Z,96498.34
2018-03-28T13:47:19.149Z,96488.45
2018-03-28T13:49:47.412Z,96488.91
2018-03-28T13:52:15.684Z,96491.18
2018-03-28T13:54:43.969Z,96481.20
2018-03-28T13:57:12.229Z,96484.06
2018-03-28T13:59:40.501Z,96466.97
2018-03-28T14:02:08.774Z,96458.01
2018-03-28T14:04:37.037Z,96453.05
2018-03-28T14:07:05.304Z,96452.67
2018-03-28T14:09:34.353Z,96449.78
2018-03-28T14:12:02.616Z,96439.94
2018-03-28T14:14:30.877Z,96440.36
2018-03-28T14:16:59.171Z,96430.27
2018-03-28T14:19:27.436Z,96424.44
2018-03-28T14:21:55.711Z,96416.84
2018-03-28T14:24:23.982Z,96412.39
2018-03-28T14:26:52.254Z,96404.52
2018-03-28T14:29:20.516Z,96395.80
2018-03-28T14:31:48.986Z,96400.45
2018-03-28T14:34:18.020Z,96395.25
2018-03-28T14:36:46.300Z,96386.86
2018-03-28T14:39:15.441Z,96384.06
2018-03-28T14:41:44.498Z,96381.41
2018-03-28T14:44:12.760Z,96374.53
2018-03-28T14:46:41.124Z,96369.18
2018-03-28T14:49:09.396Z,96363.36
2018-03-28T14:51:37.657Z,96362.99
2018-03-28T14:54:06.765Z,96363.56
2018-03-28T14:56:34.974Z,96355.86
2018-03-28T14:59:03.239Z,96353.45
2018-03-28T15:01:31.527Z,96356.64
2018-03-28T15:03:59.816Z,96355.83
2018-03-28T15:06:28.087Z,96354.61
2018-03-28T15:08:56.369Z,96347.45
2018-03-28T15:11:24.625Z,96348.91
2018-03-28T15:13:52.940Z,96345.83
2018-03-28T15:16:21.175Z,96344.22
2018-03-28T15:18:49.466Z,96331.77
2018-03-28T15:21:17.781Z,96330.36
2018-03-28T15:23:46.806Z,96329.81
2018-03-28T15:26:15.057Z,96322.70
2018-03-28T15:28:44.237Z,96318.22
2018-03-28T15:31:13.260Z,96308.19
2018-03-28T15:33:41.529Z,96305.70
2018-03-28T15:36:09.796Z,96298.64
2018-03-28T15:38:38.865Z,96295.60
2018-03-28T15:41:07.133Z,96288.50
2018-03-28T15:43:35.418Z,96281.53
2018-03-28T15:46:03.673Z,96289.91
2018-03-28T15:48:32.051Z,96284.14
2018-03-28T15:51:00.505Z,96273.25
2018-03-28T15:53:29.971Z,96268.88
2018-03-28T15:55:58.430Z,96261.58
2018-03-28T15:58:27.489Z,96257.09
2018-03-28T16:00:55.889Z,96253.93
2018-03-28T16:03:24.549Z,96250.26
2018-03-28T16:05:52.942Z,96243.80
2018-03-28T16:08:21.331Z,96237.59
2018-03-28T16:10:49.705Z,96236.81
2018-03-28T16:13:18.640Z,96232.92
2018-03-28T16:15:48.093Z,96229.92
2018-03-28T16:18:17.378Z,96228.15
2018-03-28T16:20:45.801Z,96219.81
2018-03-28T16:23:14.339Z,96221.02
2018-03-28T16:25:42.630Z,96212.49
2018-03-28T16:28:10.952Z,96202.30
2018-03-28T16:30:40.352Z,96207.83
2018-03-28T16:33:10.575Z,96201.36
2018-03-28T16:35:39.934Z,96196.42
2018-03-28T16:38:08.527Z,96191.03
2018-03-28T16:40:38.675Z,96189.95
2018-03-28T16:43:07.718Z,96184.14
2018-03-28T16:45:37.580Z,96178.28
2018-03-28T16:48:07.606Z,96166.66
2018-03-28T16:50:37.170Z,96153.32
2018-03-28T16:53:07.022Z,96150.73
2018-03-28T16:55:36.349Z,96149.69
2018-03-28T16:58:05.744Z,96150.56
2018-03-28T17:00:35.821Z,96148.84
2018-03-28T17:03:05.140Z,96146.08
2018-03-28T17:05:34.649Z,96138.81
2018-03-28T17:08:04.202Z,96138.03
2018-03-28T17:10:34.763Z,96143.63
2018-03-28T17:13:04.502Z,96142.79
2018-03-28T17:15:34.244Z,96151.70
2018-03-28T17:18:05.057Z,96147.09
2018-03-28T17:20:39.054Z,96144.81
2018-03-28T17:23:09.225Z,96141.16
2018-03-28T17:25:39.986Z,96143.65
2018-03-28T17:28:09.802Z,96134.56
2018-03-28T17:30:39.895Z,96136.84
2018-03-28T17:33:10.004Z,96128.54
2018-03-28T17:35:39.726Z,96132.17
2018-03-28T17:38:10.082Z,96131.42
2018-03-28T17:40:40.044Z,96121.34
2018-03-28T17:43:10.965Z,96125.44
2018-03-28T17:45:42.540Z,96129.64
2018-03-28T17:48:13.242Z,96122.52
2018-03-28T17:50:43.233Z,96109.66
2018-03-28T17:53:13.220Z,96105.29
2018-03-28T17:55:43.867Z,96105.64
2018-03-28T17:58:13.873Z,96099.05
2018-03-28T18:00:43.770Z,96107.72
2018-03-28T18:03:14.806Z,96105.08
2018-03-28T18:05:45.556Z,96101.39
2018-03-28T18:08:15.737Z,96097.09
2018-03-28T18:10:44.966Z,96094.55
2018-03-28T18:13:15.197Z,96091.20
2018-03-28T18:15:46.047Z,96088.84
2018-03-28T18:18:15.473Z,96082.52
2018-03-28T18:20:44.777Z,96081.14
2018-03-28T18:23:14.083Z,96078.14
2018-03-28T18:25:43.604Z,96074.56
2018-03-28T18:28:12.892Z,96068.10
2018-03-28T18:30:42.155Z,96062.92
2018-03-28T18:33:12.484Z,96069.47
2018-03-28T18:35:41.799Z,96075.14
2018-03-28T18:38:11.936Z,96068.84
2018-03-28T18:40:41.810Z,96071.34
2018-03-28T18:43:12.846Z,96064.54
2018-03-28T18:45:42.970Z,96067.59
2018-03-28T18:48:12.520Z,96055.72
2018-03-28T18:50:42.473Z,96059.91
2018-03-28T18:53:12.970Z,96048.41
2018-03-28T18:55:42.842Z,96049.90
2018-03-28T18:58:12.643Z,96051.44
2018-03-28T19:00:42.539Z,96046.45
2018-03-28T19:03:12.701Z,96028.91
2018-03-28T19:05:42.468Z,96028.22
2018-03-28T19:08:12.821Z,96025.28
2018-03-28T19:10:42.699Z,96028.16
2018-03-28T19:13:13.284Z,96014.37
2018-03-28T19:15:43.725Z,96015.34
2018-03-28T19:18:15.090Z,96024.42
2018-03-28T19:20:45.060Z,96021.81
2018-03-28T19:23:15.134Z,96022.50
2018-03-28T19:25:44.973Z,96028.88
2018-03-28T19:28:15.228Z,96019.23
2018-03-28T19:30:46.015Z,96021.13
2018-03-28T19:33:16.160Z,96018.22
2018-03-28T19:35:46.180Z,96019.19
2018-03-28T19:38:16.232Z,96025.28
2018-03-28T19:40:46.026Z,96029.47
2018-03-28T19:43:16.039Z,96020.39
2018-03-28T19:45:45.796Z,96009.04
2018-03-28T19:48:15.387Z,96015.39
2018-03-28T19:50:45.225Z,96019.64
2018-03-28T19:53:16.427Z,96014.47
2018-03-28T19:55:46.186Z,96010.67
2018-03-28T19:58:17.117Z,96005.22
2018-03-28T20:00:47.052Z,96022.79
2018-03-28T20:03:18.804Z,96023.92
2018-03-28T20:05:48.638Z,96048.23
2018-03-28T20:08:19.279Z,96050.88
2018-03-28T20:10:49.381Z,96059.58
2018-03-28T20:13:19.509Z,96049.20
2018-03-28T20:15:49.394Z,96051.41
2018-03-28T20:18:20.141Z,96061.33
2018-03-28T20:20:49.989Z,96060.41
2018-03-28T20:23:21.268Z,96070.02
2018-03-28T20:25:52.340Z,96068.45
2018-03-28T20:28:22.356Z,96085.05
2018-03-28T20:30:52.825Z,96070.21
2018-03-28T20:33:22.492Z,96077.01
2018-03-28T20:35:52.831Z,96083.82
2018-03-28T20:38:22.572Z,96090.94
2018-03-28T20:40:52.459Z,96094.64
2018-03-28T20:43:23.577Z,96088.21
2018-03-28T20:45:53.639Z,96100.36
2018-03-28T20:48:23.304Z,96107.50
2018-03-28T20:50:53.261Z,96113.35
2018-03-28T20:53:24.802Z,96124.75
2018-03-28T20:55:55.305Z,96148.31
2018-03-28T20:58:26.048Z,96145.23
2018-03-28T21:00:56.879Z,96153.12
2018-03-28T21:03:26.802Z,96162.86
2018-03-28T21:05:56.730Z,96161.30
2018-03-28T21:08:26.603Z,96178.41
2018-03-28T21:10:56.418Z,96187.19
2018-03-28T21:13:27.129Z,96185.89
2018-03-28T21:15:57.660Z,96184.91
2018-03-28T21:18:28.423Z,96189.56
2018-03-28T21:20:59.098Z,96193.88
2018-03-28T21:23:29.082Z,96196.77
2018-03-28T21:25:59.846Z,96200.11
2018-03-28T21:28:29.712Z,96200.46
2018-03-28T21:31:01.295Z,96209.03
2018-03-28T21:33:31.419Z,96215.25
2018-03-28T21:36:01.823Z,96237.31
2018-03-28T21:38:32.581Z,96248.99
2018-03-28T21:41:02.278Z,96250.51
2018-03-28T21:43:32.147Z,96256.30
2018-03-28T21:46:02.268Z,96259.25
2018-03-28T21:48:32.395Z,96270.16
2018-03-28T21:51:02.190Z,96273.95
2018-03-28T21:53:32.070Z,96277.57
2018-03-28T21:56:01.901Z,96288.40
2018-03-28T21:58:31.773Z,96287.99
2018-03-28T22:01:02.560Z,96299.36
2018-03-28T22:03:32.725Z,96298.44
2018-03-28T22:06:02.456Z,96303.22
2018-03-28T22:08:32.303Z,96312.80
2018-03-28T22:11:00.928Z,96313.40
2018-03-28T22:13:29.243Z,96326.73
2018-03-28T22:15:57.553Z,96328.75
2018-03-28T22:18:26.578Z,96339.73
2018-03-28T22:20:54.828Z,96350.75
2018-03-28T22:23:23.874Z,96343.32
2018-03-28T22:25:52.130Z,96358.03
2018-03-28T22:28:20.405Z,96362.64
2018-03-28T22:30:48.741Z,96357.66
2018-03-28T22:33:17.764Z,96362.15
2018-03-28T22:35:46.031Z,96371.04
2018-03-28T22:38:15.066Z,96365.66
2018-03-28T22:40:43.319Z,96372.91
2018-03-28T22:43:11.600Z,96372.50
2018-03-28T22:45:39.860Z,96372.74
2018-03-28T22:48:08.113Z,96377.42
2018-03-28T22:50:37.141Z,96396.42
2018-03-28T22:53:05.399Z,96383.11
2018-03-28T22:55:33.668Z,96394.39
2018-03-28T22:58:02.709Z,96384.46
2018-03-28T23:00:30.972Z,96393.30
2018-03-28T23:02:59.234Z,96404.53
2018-03-28T23:05:27.519Z,96413.42
2018-03-28T23:07:55.827Z,96424.19
2018-03-28T23:10:24.030Z,96429.02
2018-03-28T23:12:53.101Z,96440.66
2018-03-28T23:15:21.355Z,96439.24
2018-03-28T23:17:49.624Z,96450.05
2018-03-28T23:20:17.893Z,96452.63
2018-03-28T23:22:46.152Z,96459.90
2018-03-28T23:25:14.404Z,96466.36
2018-03-28T23:27:43.444Z,96492.25
2018-03-28T23:30:11.695Z,96477.08
2018-03-28T23:32:39.949Z,96486.36
2018-03-28T23:35:08.985Z,96497.36
2018-03-28T23:37:37.240Z,96485.48
2018-03-28T23:40:05.505Z,96501.11
2018-03-28T23:42:34.525Z,96499.45
2018-03-28T23:45:02.800Z,96503.31
2018-03-28T23:47:31.073Z,96511.33
2018-03-28T23:49:59.337Z,96513.52
2018-03-28T23:52:27.616Z,96516.05
2018-03-28T23:54:55.867Z,96523.16
2018-03-28T23:57:24.929Z,96530.34
2018-03-28T23:59:53.196Z,96535.88
